createdAt,value
2019-05-19T00:00:07.773Z,12.50
2019-05-19T00:02:41.348Z,12.50
2019-05-19T00:05:14.261Z,12.50
2019-05-19T00:07:46.430Z,12.50
2019-05-19T00:10:18.633Z,12.50
2019-05-19T00:12:50.340Z,12.50
2019-05-19T00:15:24.475Z,12.50
2019-05-19T00:17:56.539Z,12.40
2019-05-19T00:20:28.181Z,12.40
2019-05-19T00:23:02.184Z,12.40
2019-05-19T00:25:34.659Z,12.40
2019-05-19T00:28:07.768Z,12.30
2019-05-19T00:30:41.814Z,12.40
2019-05-19T00:33:15.361Z,12.40
2019-05-19T00:35:48.431Z,12.40
2019-05-19T00:38:21.243Z,12.30
2019-05-19T00:40:55.067Z,12.30
2019-05-19T00:43:28.272Z,12.30
2019-05-19T00:46:01.993Z,12.40
2019-05-19T00:48:34.339Z,12.40
2019-05-19T00:51:06.707Z,12.40
2019-05-19T00:53:38.890Z,12.40
2019-05-19T00:56:11.287Z,12.40
2019-05-19T00:58:44.555Z,12.50
2019-05-19T01:01:16.349Z,12.50
2019-05-19T01:03:48.871Z,12.60
2019-05-19T01:06:20.826Z,12.60
2019-05-19T01:08:52.580Z,12.60
2019-05-19T01:11:24.064Z,12.60
2019-05-19T01:13:55.858Z,12.60
2019-05-19T01:16:27.876Z,12.60
2019-05-19T01:18:59.485Z,12.60
2019-05-19T01:21:32.987Z,12.60
2019-05-19T01:24:05.470Z,12.70
2019-05-19T01:26:37.418Z,12.70
2019-05-19T01:29:09.617Z,12.60
2019-05-19T01:31:41.668Z,12.60
2019-05-19T01:34:15.286Z,12.60
2019-05-19T01:36:47.136Z,12.60
2019-05-19T01:39:19.368Z,12.60
2019-05-19T01:41:52.070Z,12.60
2019-05-19T01:44:24.323Z,12.60
2019-05-19T01:47:00.121Z,12.60
2019-05-19T01:49:32.848Z,12.60
2019-05-19T01:52:05.776Z,12.60
2019-05-19T01:54:38.417Z,12.50
2019-05-19T01:57:10.556Z,12.50
2019-05-19T01:59:42.672Z,12.50
2019-05-19T02:02:15.589Z,12.50
2019-05-19T02:04:47.434Z,12.50
2019-05-19T02:07:21.062Z,12.50
2019-05-19T02:09:54.744Z,12.50
2019-05-19T02:12:27.466Z,12.50
2019-05-19T02:14:59.166Z,12.50
2019-05-19T02:17:33.362Z,12.50
2019-05-19T02:20:06.593Z,12.50
2019-05-19T02:22:38.818Z,12.60
2019-05-19T02:25:14.823Z,12.50
2019-05-19T02:27:49.713Z,12.50
2019-05-19T02:30:22.430Z,12.60
2019-05-19T02:32:54.625Z,12.60
2019-05-19T02:35:28.226Z,12.60
2019-05-19T02:38:02.366Z,12.70
2019-05-19T02:40:36.989Z,12.60
2019-05-19T02:43:09.955Z,12.60
2019-05-19T02:45:43.736Z,12.60
2019-05-19T02:48:18.453Z,12.50
2019-05-19T02:50:53.516Z,12.40
2019-05-19T02:53:26.995Z,12.40
2019-05-19T02:56:01.225Z,12.40
2019-05-19T02:58:35.057Z,12.40
2019-05-19T03:01:07.562Z,12.40
2019-05-19T03:03:39.838Z,12.40
2019-05-19T03:06:11.622Z,12.40
2019-05-19T03:08:44.014Z,12.40
2019-05-19T03:11:16.444Z,12.40
2019-05-19T03:13:52.187Z,12.40
2019-05-19T03:16:24.941Z,12.40
2019-05-19T03:18:57.274Z,12.40
2019-05-19T03:21:29.659Z,12.40
2019-05-19T03:24:02.026Z,12.40
2019-05-19T03:26:35.191Z,12.40
2019-05-19T03:29:15.842Z,12.40
2019-05-19T03:32:22.133Z,12.30
2019-05-19T03:34:56.303Z,12.30
2019-05-19T03:37:29.356Z,12.30
2019-05-19T03:40:03.245Z,12.40
2019-05-19T03:42:35.133Z,12.40
2019-05-19T03:45:07.346Z,12.30
2019-05-19T03:47:39.795Z,12.30
2019-05-19T03:50:12.571Z,12.30
2019-05-19T03:52:44.501Z,12.30
2019-05-19T03:55:17.463Z,12.30
2019-05-19T03:57:49.447Z,12.40
2019-05-19T04:00:21.792Z,12.30
2019-05-19T04:02:54.402Z,12.40
2019-05-19T04:05:26.436Z,12.40
2019-05-19T04:07:59.230Z,12.50
2019-05-19T04:10:30.906Z,12.50
2019-05-19T04:13:03.348Z,12.50
2019-05-19T04:15:35.636Z,12.50
2019-05-19T04:18:07.690Z,12.50
2019-05-19T04:20:40.269Z,12.50
2019-05-19T04:23:12.308Z,12.50
2019-05-19T04:25:44.628Z,12.60
2019-05-19T04:28:16.908Z,12.60
2019-05-19T04:30:49.578Z,12.50
2019-05-19T04:33:21.359Z,12.60
2019-05-19T04:35:57.607Z,12.60
2019-05-19T04:38:29.984Z,12.60
2019-05-19T04:41:02.844Z,12.60
2019-05-19T04:43:35.057Z,12.60
2019-05-19T04:46:07.470Z,12.60
2019-05-19T04:48:39.797Z,12.60
2019-05-19T04:51:11.936Z,12.60
2019-05-19T04:53:45.727Z,12.60
2019-05-19T04:56:19.807Z,12.60
2019-05-19T04:58:51.200Z,12.60
2019-05-19T05:01:23.563Z,12.60
2019-05-19T05:03:55.817Z,12.60
2019-05-19T05:06:27.741Z,12.70
2019-05-19T05:09:00.784Z,12.70
2019-05-19T05:11:32.980Z,12.60
2019-05-19T05:14:08.259Z,12.70
2019-05-19T05:16:40.324Z,12.70
2019-05-19T05:19:12.568Z,12.70
2019-05-19T05:21:44.906Z,12.70
2019-05-19T05:24:17.017Z,12.70
2019-05-19T05:26:48.893Z,12.80
2019-05-19T05:29:21.534Z,12.80
2019-05-19T05:31:54.878Z,12.80
2019-05-19T05:34:27.950Z,12.80
2019-05-19T05:37:00.892Z,12.80
2019-05-19T05:39:33.210Z,12.80
2019-05-19T05:42:05.307Z,12.80
2019-05-19T05:44:37.709Z,12.80
2019-05-19T05:47:10.966Z,12.90
2019-05-19T05:49:43.206Z,13.00
2019-05-19T05:52:15.700Z,13.00
2019-05-19T05:54:48.245Z,13.00
2019-05-19T05:57:21.317Z,13.10
2019-05-19T05:59:54.678Z,13.20
2019-05-19T06:02:28.368Z,13.20
2019-05-19T06:05:00.487Z,13.30
2019-05-19T06:07:32.502Z,13.30
2019-05-19T06:10:06.239Z,13.40
2019-05-19T06:12:41.202Z,13.30
2019-05-19T06:15:14.294Z,13.40
2019-05-19T06:17:48.234Z,13.40
2019-05-19T06:20:20.807Z,13.40
2019-05-19T06:22:56.952Z,13.40
2019-05-19T06:25:27.671Z,13.40
2019-05-19T06:28:03.437Z,13.30
2019-05-19T06:30:35.587Z,13.30
2019-05-19T06:33:08.305Z,13.50
2019-05-19T06:35:41.219Z,13.50
2019-05-19T06:38:17.446Z,13.50
2019-05-19T06:40:49.969Z,13.50
2019-05-19T06:43:22.510Z,13.60
2019-05-19T06:45:54.619Z,13.60
2019-05-19T06:48:27.402Z,13.60
2019-05-19T06:50:59.682Z,13.60
2019-05-19T06:53:32.988Z,13.60
2019-05-19T06:56:05.141Z,13.70
2019-05-19T06:58:38.215Z,13.60
2019-05-19T07:01:10.417Z,13.70
2019-05-19T07:03:42.568Z,13.70
2019-05-19T07:06:15.745Z,13.70
2019-05-19T07:08:49.881Z,13.70
2019-05-19T07:11:22.068Z,13.60
2019-05-19T07:13:54.020Z,13.70
2019-05-19T07:16:27.684Z,13.70
2019-05-19T07:19:00.566Z,13.70
2019-05-19T07:21:35.618Z,13.60
2019-05-19T07:24:08.878Z,13.60
2019-05-19T07:26:41.130Z,13.60
2019-05-19T07:29:13.345Z,13.70
2019-05-19T07:31:47.094Z,13.70
2019-05-19T07:34:19.723Z,13.90
2019-05-19T07:36:51.977Z,14.00
2019-05-19T07:39:23.756Z,13.90
2019-05-19T07:41:56.535Z,14.00
2019-05-19T07:44:28.843Z,14.00
2019-05-19T07:47:01.337Z,14.00
2019-05-19T07:49:33.689Z,13.90
2019-05-19T07:52:06.412Z,14.00
2019-05-19T07:54:38.183Z,14.00
2019-05-19T07:57:11.754Z,13.90
2019-05-19T07:59:43.639Z,13.90
2019-05-19T08:02:15.445Z,13.90
2019-05-19T08:04:49.014Z,13.80
2019-05-19T08:07:22.578Z,13.70
2019-05-19T08:09:57.038Z,13.70
2019-05-19T08:12:30.178Z,13.60
2019-05-19T08:15:02.829Z,13.60
2019-05-19T08:17:35.707Z,13.60
2019-05-19T08:20:10.508Z,13.50
2019-05-19T08:22:44.521Z,13.50
2019-05-19T08:25:17.674Z,13.50
2019-05-19T08:27:49.983Z,13.50
2019-05-19T08:30:23.314Z,13.50
2019-05-19T08:32:56.041Z,13.50
2019-05-19T08:35:28.140Z,13.50
2019-05-19T08:38:03.191Z,13.50
2019-05-19T08:40:37.037Z,13.50
2019-05-19T08:43:09.602Z,13.50
2019-05-19T08:45:42.422Z,13.40
2019-05-19T08:48:14.789Z,13.40
2019-05-19T08:50:47.156Z,13.40
2019-05-19T08:53:19.224Z,13.50
2019-05-19T08:55:51.984Z,13.60
2019-05-19T08:58:24.696Z,13.70
2019-05-19T09:00:56.919Z,13.80
2019-05-19T09:03:30.134Z,14.00
2019-05-19T09:06:03.115Z,14.10
2019-05-19T09:08:35.912Z,14.10
2019-05-19T09:11:07.898Z,14.10
2019-05-19T09:13:43.903Z,14.10
2019-05-19T09:16:19.703Z,14.00
2019-05-19T09:18:51.757Z,14.00
2019-05-19T09:21:25.036Z,14.10
2019-05-19T09:23:57.593Z,14.10
2019-05-19T09:26:31.242Z,14.10
2019-05-19T09:29:03.432Z,14.00
2019-05-19T09:31:35.595Z,14.20
2019-05-19T09:34:12.095Z,14.20
2019-05-19T09:36:44.584Z,14.30
2019-05-19T09:39:16.867Z,14.20
2019-05-19T09:41:49.709Z,14.30
2019-05-19T09:44:23.379Z,14.30
2019-05-19T09:46:57.745Z,14.30
2019-05-19T09:49:33.015Z,14.20
2019-05-19T09:52:08.988Z,14.30
2019-05-19T09:54:45.623Z,14.30
2019-05-19T09:57:16.916Z,14.40
2019-05-19T09:59:48.754Z,14.50
2019-05-19T10:02:21.793Z,14.50
2019-05-19T10:04:54.792Z,14.60
2019-05-19T10:07:29.571Z,14.60
2019-05-19T10:10:03.221Z,14.60
2019-05-19T10:12:35.634Z,14.50
2019-05-19T10:15:08.539Z,14.60
2019-05-19T10:17:41.044Z,14.60
2019-05-19T10:20:14.802Z,14.80
2019-05-19T10:22:46.897Z,15.00
2019-05-19T10:25:22.576Z,15.30
2019-05-19T10:27:55.865Z,15.40
2019-05-19T10:30:27.750Z,15.40
2019-05-19T10:33:00.014Z,15.30
2019-05-19T10:35:32.264Z,15.10
2019-05-19T10:38:04.612Z,14.90
2019-05-19T10:40:36.773Z,15.10
2019-05-19T10:43:08.654Z,15.30
2019-05-19T10:45:41.125Z,15.40
2019-05-19T10:48:13.350Z,15.50
2019-05-19T10:50:45.865Z,15.40
2019-05-19T10:53:18.087Z,15.20
2019-05-19T10:55:54.638Z,15.40
2019-05-19T10:58:27.163Z,15.40
2019-05-19T11:00:59.744Z,15.60
2019-05-19T11:03:31.817Z,15.60
2019-05-19T11:06:04.015Z,15.80
2019-05-19T11:08:36.097Z,15.80
2019-05-19T11:11:08.506Z,15.80
2019-05-19T11:13:40.885Z,15.90
2019-05-19T11:16:12.745Z,15.80
2019-05-19T11:18:45.683Z,15.70
2019-05-19T11:21:18.140Z,15.50
2019-05-19T11:23:50.014Z,15.40
2019-05-19T11:26:24.834Z,15.40
2019-05-19T11:28:57.074Z,15.20
2019-05-19T11:31:28.968Z,15.20
2019-05-19T11:34:00.937Z,15.00
2019-05-19T11:36:34.140Z,15.10
2019-05-19T11:39:08.244Z,15.00
2019-05-19T11:41:40.954Z,14.90
2019-05-19T11:44:12.952Z,14.90
2019-05-19T11:46:45.466Z,14.70
2019-05-19T11:49:17.567Z,14.70
2019-05-19T11:51:49.912Z,14.40
2019-05-19T11:54:22.243Z,14.10
2019-05-19T11:56:55.380Z,14.10
2019-05-19T11:59:27.590Z,14.00
2019-05-19T12:02:01.275Z,13.80
2019-05-19T12:04:33.673Z,13.80
2019-05-19T12:07:06.037Z,13.80
2019-05-19T12:09:38.777Z,13.70
2019-05-19T12:12:11.244Z,13.70
2019-05-19T12:14:44.017Z,13.70
2019-05-19T12:17:16.218Z,13.90
2019-05-19T12:19:48.432Z,14.00
2019-05-19T12:22:22.334Z,14.30
2019-05-19T12:24:55.087Z,14.40
2019-05-19T12:27:27.549Z,14.50
2019-05-19T12:29:59.327Z,14.30
2019-05-19T12:32:31.756Z,14.50
2019-05-19T12:35:04.237Z,14.50
2019-05-19T12:37:36.272Z,14.70
2019-05-19T12:43:19.244Z,14.80
2019-05-19T12:45:51.295Z,14.60
2019-05-19T12:48:23.194Z,14.60
2019-05-19T12:50:55.462Z,14.80
2019-05-19T12:53:31.405Z,14.70
2019-05-19T12:56:03.387Z,14.80
2019-05-19T12:58:35.630Z,14.80
2019-05-19T13:01:07.896Z,14.80
2019-05-19T13:03:40.280Z,15.20
2019-05-19T13:06:12.948Z,15.30
2019-05-19T13:08:45.838Z,15.40
2019-05-19T13:11:20.723Z,15.70
2019-05-19T13:13:52.580Z,16.10
2019-05-19T13:16:24.604Z,16.10
2019-05-19T13:18:56.833Z,16.30
2019-05-19T13:21:29.199Z,16.30
2019-05-19T13:24:01.241Z,16.30
2019-05-19T13:26:34.005Z,16.00
2019-05-19T13:29:09.117Z,16.20
2019-05-19T13:31:41.218Z,16.40
2019-05-19T13:34:13.640Z,16.50
2019-05-19T13:36:46.140Z,16.60
2019-05-19T13:39:18.114Z,16.60
2019-05-19T13:41:50.887Z,16.40
2019-05-19T13:44:22.864Z,16.50
2019-05-19T13:46:55.007Z,16.40
2019-05-19T13:49:27.091Z,16.10
2019-05-19T13:51:59.382Z,16.10
2019-05-19T13:54:31.456Z,16.50
2019-05-19T14:00:19.656Z,16.40
2019-05-19T14:02:51.559Z,16.20
2019-05-19T14:05:23.630Z,16.30
2019-05-19T14:07:55.800Z,16.40
2019-05-19T14:10:28.102Z,16.00
2019-05-19T14:13:00.049Z,15.70
2019-05-19T14:15:32.473Z,15.90
2019-05-19T14:18:04.431Z,15.70
2019-05-19T14:20:39.567Z,15.80
2019-05-19T14:23:12.901Z,15.70
2019-05-19T14:25:44.752Z,15.70
2019-05-19T14:28:16.806Z,15.40
2019-05-19T14:30:49.375Z,15.20
2019-05-19T14:33:22.088Z,15.10
2019-05-19T14:35:54.330Z,15.30
2019-05-19T14:38:27.751Z,15.40
2019-05-19T14:41:00.793Z,15.60
2019-05-19T14:43:32.937Z,15.50
2019-05-19T14:46:04.974Z,15.40
2019-05-19T14:48:37.279Z,15.50
2019-05-19T14:51:09.990Z,15.20
2019-05-19T14:53:42.113Z,15.10
2019-05-19T14:56:13.869Z,15.20
2019-05-19T14:58:48.822Z,15.10
2019-05-19T15:01:27.144Z,15.00
2019-05-19T15:03:59.867Z,15.10
2019-05-19T15:06:32.360Z,14.90
2019-05-19T15:09:05.942Z,15.00
2019-05-19T15:11:38.216Z,15.10
2019-05-19T15:14:12.156Z,15.00
2019-05-19T15:16:45.254Z,14.90
2019-05-19T15:19:17.321Z,15.00
2019-05-19T15:21:50.718Z,15.00
2019-05-19T15:24:24.659Z,14.80
2019-05-19T15:27:00.317Z,14.60
2019-05-19T15:29:34.796Z,14.50
2019-05-19T15:32:08.999Z,14.70
2019-05-19T15:34:43.262Z,14.50
2019-05-19T15:37:17.759Z,14.60
2019-05-19T15:39:51.932Z,14.60
2019-05-19T15:42:24.366Z,14.60
2019-05-19T15:44:56.752Z,14.50
2019-05-19T15:47:29.413Z,14.70
2019-05-19T15:50:05.775Z,14.90
2019-05-19T15:52:47.018Z,14.60
2019-05-19T15:55:24.681Z,14.60
2019-05-19T15:57:58.446Z,14.80
2019-05-19T16:00:31.757Z,14.80
2019-05-19T16:03:04.507Z,14.80
2019-05-19T16:05:40.007Z,14.90
2019-05-19T16:08:13.039Z,14.60
2019-05-19T16:10:46.463Z,14.60
2019-05-19T16:13:21.933Z,14.50
2019-05-19T16:15:56.651Z,14.30
2019-05-19T16:18:29.015Z,14.30
2019-05-19T16:21:02.676Z,14.20
2019-05-19T16:23:35.929Z,14.20
2019-05-19T16:26:08.239Z,14.30
2019-05-19T16:28:40.735Z,14.60
2019-05-19T16:31:14.627Z,14.70
2019-05-19T16:33:48.120Z,14.90
2019-05-19T16:36:21.169Z,14.80
2019-05-19T16:38:53.423Z,14.70
2019-05-19T16:41:26.633Z,14.70
2019-05-19T16:43:59.609Z,14.70
2019-05-19T16:46:31.889Z,14.60
2019-05-19T16:49:04.051Z,14.50
2019-05-19T16:51:36.198Z,14.30
2019-05-19T16:54:12.354Z,14.10
2019-05-19T16:56:44.340Z,14.30
2019-05-19T16:59:25.393Z,14.00
2019-05-19T17:01:58.467Z,13.80
2019-05-19T17:04:31.702Z,13.80
2019-05-19T17:07:05.442Z,13.70
2019-05-19T17:09:38.170Z,13.70
2019-05-19T17:12:16.490Z,13.60
2019-05-19T17:14:49.354Z,13.70
2019-05-19T17:17:21.925Z,13.60
2019-05-19T17:19:55.478Z,13.50
2019-05-19T17:22:29.075Z,13.50
2019-05-19T17:25:01.046Z,13.50
2019-05-19T17:27:33.784Z,13.50
2019-05-19T17:30:07.130Z,13.60
2019-05-19T17:32:39.332Z,13.50
2019-05-19T17:35:13.409Z,13.50
2019-05-19T17:37:45.614Z,13.30
2019-05-19T17:40:19.314Z,13.20
2019-05-19T17:42:51.726Z,13.20
2019-05-19T17:45:24.021Z,13.00
2019-05-19T17:48:09.088Z,13.00
2019-05-19T17:50:33.834Z,13.00
2019-05-19T17:53:06.887Z,12.90
2019-05-19T17:55:41.103Z,12.90
2019-05-19T17:58:13.872Z,12.80
2019-05-19T18:00:45.751Z,12.80
2019-05-19T18:03:18.560Z,12.70
2019-05-19T18:05:50.560Z,12.70
2019-05-19T18:08:22.950Z,12.70
2019-05-19T18:10:55.859Z,12.60
2019-05-19T18:13:28.278Z,12.60
2019-05-19T18:16:00.476Z,12.50
2019-05-19T18:18:32.786Z,12.40
2019-05-19T18:24:15.605Z,12.30
2019-05-19T18:26:48.020Z,12.30
2019-05-19T18:29:30.970Z,12.30
2019-05-19T18:31:54.799Z,12.20
2019-05-19T18:34:27.695Z,12.20
2019-05-19T18:37:02.772Z,12.10
2019-05-19T18:39:34.931Z,12.20
2019-05-19T18:42:07.805Z,12.20
2019-05-19T18:44:44.822Z,12.20
2019-05-19T18:47:19.703Z,12.10
2019-05-19T18:49:52.333Z,12.10
2019-05-19T18:52:24.495Z,12.10
2019-05-19T18:55:01.496Z,12.00
2019-05-19T18:57:34.031Z,12.00
2019-05-19T19:00:06.702Z,12.00
2019-05-19T19:02:41.672Z,12.00
2019-05-19T19:05:13.560Z,11.90
2019-05-19T19:07:53.543Z,11.90
2019-05-19T19:10:29.602Z,11.80
2019-05-19T19:13:02.718Z,11.80
2019-05-19T19:15:35.087Z,11.80
2019-05-19T19:18:07.161Z,11.90
2019-05-19T19:20:39.723Z,11.80
2019-05-19T19:23:11.629Z,11.80
2019-05-19T19:25:43.798Z,11.80
2019-05-19T19:28:16.408Z,11.80
2019-05-19T19:30:53.297Z,11.80
2019-05-19T19:33:25.703Z,11.80
2019-05-19T19:35:58.820Z,11.70
2019-05-19T19:38:31.504Z,11.70
2019-05-19T19:41:04.512Z,11.60
2019-05-19T19:43:38.345Z,11.60
2019-05-19T19:46:10.528Z,11.60
2019-05-19T19:48:46.707Z,11.60
2019-05-19T19:51:19.628Z,11.60
2019-05-19T19:53:52.983Z,11.50
2019-05-19T19:56:26.734Z,11.50
2019-05-19T19:59:01.419Z,11.50
2019-05-19T20:01:34.122Z,11.50
2019-05-19T20:04:05.870Z,11.50
2019-05-19T20:06:40.453Z,11.40
2019-05-19T20:09:12.377Z,11.50
2019-05-19T20:11:44.544Z,11.50
2019-05-19T20:15:05.534Z,11.50
2019-05-19T20:17:46.741Z,11.50
2019-05-19T20:20:24.216Z,11.50
2019-05-19T20:22:56.581Z,11.50
2019-05-19T20:25:28.396Z,11.50
2019-05-19T20:28:08.500Z,11.50
2019-05-19T20:30:44.972Z,11.50
2019-05-19T20:33:18.658Z,11.50
2019-05-19T20:35:52.417Z,11.50
2019-05-19T20:38:30.223Z,11.50
2019-05-19T20:41:02.547Z,11.50
2019-05-19T20:43:51.067Z,11.40
2019-05-19T20:46:47.103Z,11.40
2019-05-19T20:49:21.904Z,11.40
2019-05-19T20:52:09.720Z,11.40
2019-05-19T20:54:44.587Z,11.40
2019-05-19T20:57:18.061Z,11.40
2019-05-19T20:59:51.505Z,11.40
2019-05-19T21:02:24.118Z,11.40
2019-05-19T21:04:59.970Z,11.40
2019-05-19T21:07:33.733Z,11.40
2019-05-19T21:10:07.038Z,11.40
2019-05-19T21:12:41.000Z,11.40
2019-05-19T21:15:13.945Z,11.40
2019-05-19T21:17:47.448Z,11.40
2019-05-19T21:20:19.435Z,11.40
2019-05-19T21:22:54.765Z,11.30
2019-05-19T21:25:27.283Z,11.40
2019-05-19T21:27:59.560Z,11.30
2019-05-19T21:30:32.169Z,11.40
2019-05-19T21:33:05.834Z,11.30
2019-05-19T21:35:38.455Z,11.30
2019-05-19T21:38:10.974Z,11.30
2019-05-19T21:40:46.737Z,11.30
2019-05-19T21:43:19.776Z,11.30
2019-05-19T21:45:52.652Z,11.30
2019-05-19T21:48:34.930Z,11.20
2019-05-19T21:51:06.993Z,11.20
2019-05-19T21:53:39.739Z,11.30
2019-05-19T21:56:13.965Z,11.30
2019-05-19T21:58:52.193Z,11.30
2019-05-19T22:01:26.385Z,11.30
2019-05-19T22:03:59.132Z,11.30
2019-05-19T22:06:34.183Z,11.20
2019-05-19T22:09:09.380Z,11.20
2019-05-19T22:11:42.415Z,11.30
2019-05-19T22:14:18.591Z,11.30
2019-05-19T22:16:53.675Z,11.20
2019-05-19T22:19:27.705Z,11.20
2019-05-19T22:22:04.056Z,11.30
2019-05-19T22:24:38.424Z,11.20
2019-05-19T22:27:12.955Z,11.20
2019-05-19T22:29:48.830Z,11.20
2019-05-19T22:32:22.985Z,11.20
2019-05-19T22:34:58.117Z,11.20
2019-05-19T22:37:33.324Z,11.20
2019-05-19T22:40:07.892Z,11.20
2019-05-19T22:42:42.140Z,11.20
2019-05-19T22:45:17.728Z,11.20
2019-05-19T22:47:55.688Z,11.20
2019-05-19T22:50:31.100Z,11.20
2019-05-19T22:53:05.878Z,11.20
2019-05-19T22:55:39.332Z,11.20
2019-05-19T22:58:11.574Z,11.20
2019-05-19T23:00:51.072Z,11.20
2019-05-19T23:03:24.118Z,11.20
2019-05-19T23:05:58.099Z,11.20
2019-05-19T23:08:30.456Z,11.20
2019-05-19T23:11:02.581Z,11.20
2019-05-19T23:13:35.058Z,11.20
2019-05-19T23:16:08.140Z,11.20
2019-05-19T23:18:48.796Z,11.20
2019-05-19T23:21:21.419Z,11.30
2019-05-19T23:23:54.060Z,11.20
2019-05-19T23:26:27.242Z,11.20
2019-05-19T23:29:00.416Z,11.20
2019-05-19T23:31:33.332Z,11.20
2019-05-19T23:34:07.041Z,11.20
2019-05-19T23:36:40.813Z,11.20
2019-05-19T23:39:17.209Z,11.20
2019-05-19T23:41:49.628Z,11.30
2019-05-19T23:44:22.211Z,11.30
2019-05-19T23:46:54.757Z,11.20
2019-05-19T23:49:26.707Z,11.30
2019-05-19T23:52:03.233Z,11.30
2019-05-19T23:54:35.776Z,11.30
2019-05-19T23:57:08.634Z,11.30
2019-05-19T23:59:42.189Z,11.20
